»·PEaware :: N741SG KAVX-KSAN

N741SG :: KAVX-KSAN

FLIGHT INFORMATION

Flight Status: Arrived
Operator: Privately registered:
United States
More flights under this callsign
Pilot: Carl R. (23234)
Aircraft: BEECH AIRCRAFT BARON
(BE58)
More flights by this aircraft type
Origin: KAVX Catalina
United States
Destination: KSAN San Diego Intl-Lindbergh
United States
More flights between these airports :: More routes between these airports
Route: +CSTP56
File this flight plan on PilotEdge
Remarks: I-08
Altitude:
(Current/Filed)
5,000ft
Speed:
(Current/Filed)
160kts
Departed: 05-Feb-19 10:47 AM
Arrived: 05-Feb-19 11:32 AM
Distance/Time
Traveled:
74nm/0:45
Distance/Time
To Go:
Arrived

Flight Plot

Page will automatically refresh every two minutes.

Flight plan parsing failed; only flown route is shown


Map Options




Map Legend


Flown Route
Filed Route
Departure Airport
Arrival Airport
Navaid (VOR, NDB)
Fix

Horizontal Profiles

Position Reports

Time Latitude Longitude Heading Altitude Ground
Speed
05-Feb-19 10:35 33.403160 -118.415858 37 1606ft 0kts
05-Feb-19 10:36 33.403160 -118.415858 37 1606ft 0kts
05-Feb-19 10:37 33.403160 -118.415858 37 1606ft 0kts
05-Feb-19 10:38 33.403160 -118.415858 37 1606ft 0kts
05-Feb-19 10:39 33.403160 -118.415858 37 1606ft 0kts
05-Feb-19 10:40 33.403160 -118.415858 37 1606ft 0kts
05-Feb-19 10:41 33.403160 -118.415858 37 1606ft 0kts
05-Feb-19 10:42 33.403816 -118.415094 31 1606ft 11kts
05-Feb-19 10:43 33.406476 -118.412566 54 1606ft 12kts
05-Feb-19 10:44 33.407099 -118.411501 52 1606ft 0kts
05-Feb-19 10:45 33.407337 -118.411761 240 1606ft 10kts
05-Feb-19 10:46 33.394714 -118.431381 229 2433ft 99kts
05-Feb-19 10:47 33.372161 -118.417287 95 2984ft 143kts
05-Feb-19 10:48 33.367368 -118.363768 97 3446ft 162kts
05-Feb-19 10:49 33.361294 -118.314538 98 4812ft 140kts
05-Feb-19 10:50 33.354569 -118.262767 98 4995ft 170kts
05-Feb-19 10:51 33.347014 -118.205295 99 4991ft 176kts
05-Feb-19 10:52 33.339335 -118.147089 99 4994ft 176kts
05-Feb-19 10:53 33.331625 -118.088812 98 4992ft 176kts
05-Feb-19 10:54 33.323898 -118.030687 98 4992ft 176kts
05-Feb-19 10:55 33.316117 -117.972361 98 4992ft 176kts
05-Feb-19 10:56 33.308340 -117.914276 98 5010ft 176kts
05-Feb-19 10:57 33.300502 -117.855960 98 5010ft 176kts
05-Feb-19 10:58 33.292643 -117.797696 98 5010ft 176kts
05-Feb-19 10:59 33.284609 -117.739541 99 5004ft 177kts
05-Feb-19 11:00 33.275894 -117.681434 99 5001ft 177kts
05-Feb-19 11:01 33.267097 -117.623171 99 5010ft 176kts
05-Feb-19 11:02 33.258730 -117.565259 98 5010ft 176kts
05-Feb-19 11:03 33.251551 -117.506711 97 4967ft 178kts
05-Feb-19 11:04 33.244387 -117.448073 97 4964ft 177kts
05-Feb-19 11:05 33.213631 -117.408377 156 4965ft 176kts
05-Feb-19 11:06 33.167782 -117.387079 159 4964ft 177kts
05-Feb-19 11:07 33.121004 -117.367296 160 4955ft 177kts
05-Feb-19 11:08 33.074528 -117.347771 160 4956ft 177kts
05-Feb-19 11:09 33.027805 -117.328156 160 4955ft 177kts
05-Feb-19 11:10 32.981323 -117.308664 160 4954ft 177kts
05-Feb-19 11:11 32.934640 -117.289106 160 4971ft 176kts
05-Feb-19 11:12 32.888167 -117.269660 160 4974ft 177kts
05-Feb-19 11:13 32.841360 -117.250090 160 4986ft 176kts
05-Feb-19 11:14 32.794682 -117.230606 160 4974ft 177kts
05-Feb-19 11:15 32.761702 -117.192887 101 4977ft 176kts
05-Feb-19 11:16 32.752005 -117.135631 101 4973ft 177kts
05-Feb-19 11:17 32.742315 -117.078046 101 4992ft 176kts
05-Feb-19 11:18 32.732646 -117.020339 101 4982ft 177kts
05-Feb-19 11:19 32.722940 -116.962496 101 4982ft 177kts
05-Feb-19 11:20 32.713301 -116.904916 101 4982ft 177kts
05-Feb-19 11:21 32.695639 -116.853440 166 4978ft 175kts
05-Feb-19 11:22 32.648536 -116.866751 196 4982ft 174kts
05-Feb-19 11:23 32.638608 -116.905673 318 4983ft 160kts
05-Feb-19 11:24 32.671294 -116.938477 319 4750ft 140kts
05-Feb-19 11:25 32.682856 -116.980602 284 3908ft 132kts
05-Feb-19 11:26 32.693051 -117.023305 285 3009ft 135kts
05-Feb-19 11:27 32.703545 -117.066337 286 2220ft 137kts
05-Feb-19 11:28 32.714265 -117.110314 286 1558ft 125kts
05-Feb-19 11:29 32.722338 -117.143588 286 778ft 91kts
05-Feb-19 11:30 32.729563 -117.173402 286 244ft 93kts
05-Feb-19 11:31 32.734002 -117.188046 18 21ft 0kts
05-Feb-19 11:32 32.734207 -117.187843 73 21ft 7kts
05-Feb-19 11:33 32.733942 -117.183918 31 21ft 1kts
05-Feb-19 11:34 32.732536 -117.180191 65 21ft 16kts
05-Feb-19 11:35 32.733254 -117.179005 186 21ft 0kts
05-Feb-19 11:36 32.733254 -117.179005 186 21ft 0kts

Navigation Log

Ident Type
Flight plan parsing failed, navigation log unavailable